Time;durP1;ratioP1;P1;durP2;ratioP2;P2;SDS_P1;SDS_P2;PMS_P1;PMS_P2;Temp;Humidity;BMP_temperature;BMP_pressure;BME280_temperature;BME280_humidity;BME280_pressure;Samples;Min_cycle;Max_cycle;Signal;HPM_P1;HPM_P2
2022/04/30 00:00:34;;;;;;;0.30;0.30;;;10.90;97.50;;;;;;5052790;28;20225;-67
2022/04/30 00:03:00;;;;;;;0.30;0.30;;;10.80;97.30;;;;;;5052957;28;20194;-66
2022/04/30 00:05:32;;;;;;;0.30;0.30;;;10.80;97.10;;;;;;5052883;28;20175;-67
2022/04/30 00:07:57;;;;;;;0.30;0.30;;;10.80;97.10;;;;;;5052998;28;20159;-66
2022/04/30 00:10:23;;;;;;;0.30;0.30;;;10.80;97.20;;;;;;5052854;28;20195;-67
2022/04/30 00:12:50;;;;;;;0.30;0.30;;;10.80;97.00;;;;;;5052956;28;20486;-67
2022/04/30 00:15:15;;;;;;;0.30;0.30;;;10.80;97.30;;;;;;5056489;28;20178;-67
2022/04/30 00:17:41;;;;;;;1.33;1.23;;;10.90;97.20;;;;;;5056738;28;20182;-66
2022/04/30 00:20:07;;;;;;;0.30;0.30;;;10.90;97.30;;;;;;5056375;28;20205;-67
2022/04/30 00:22:34;;;;;;;0.30;0.30;;;10.90;97.70;;;;;;5056429;28;20645;-66
2022/04/30 00:25:00;;;;;;;0.60;0.60;;;10.80;97.80;;;;;;5056501;28;20166;-67
2022/04/30 00:27:25;;;;;;;0.30;0.30;;;10.80;98.00;;;;;;5056599;28;20177;-66
2022/04/30 00:29:52;;;;;;;0.30;0.30;;;10.90;97.50;;;;;;5056241;28;20240;-67
2022/04/30 00:32:18;;;;;;;0.40;0.40;;;10.80;97.70;;;;;;5056288;28;20257;-67
2022/04/30 00:34:43;;;;;;;0.30;0.30;;;10.90;97.90;;;;;;5054987;28;20665;-67
2022/04/30 00:37:09;;;;;;;0.30;0.30;;;10.80;97.80;;;;;;5056549;28;20407;-66
2022/04/30 00:39:35;;;;;;;0.30;0.30;;;10.80;97.80;;;;;;5056126;28;20535;-67
2022/04/30 00:42:01;;;;;;;0.30;0.30;;;10.80;98.10;;;;;;5055661;28;20684;-67
2022/04/30 00:44:30;;;;;;;0.30;0.30;;;10.80;97.80;;;;;;5056230;28;20253;-67
2022/04/30 00:46:56;;;;;;;0.30;0.30;;;10.80;97.70;;;;;;5055961;28;20184;-67
2022/04/30 00:49:22;;;;;;;0.30;0.30;;;10.80;97.80;;;;;;5056302;28;20166;-66
2022/04/30 00:51:50;;;;;;;0.30;0.30;;;10.70;98.00;;;;;;5055841;28;20411;-68
2022/04/30 00:54:20;;;;;;;0.82;0.82;;;10.70;98.10;;;;;;5055946;28;20273;-67
2022/04/30 00:56:49;;;;;;;0.40;0.40;;;10.60;98.20;;;;;;5055905;28;20180;-67
2022/04/30 00:59:17;;;;;;;0.30;0.30;;;10.70;98.30;;;;;;5055809;28;20174;-66
2022/04/30 01:01:44;;;;;;;0.40;0.40;;;10.60;98.50;;;;;;5055300;28;20739;-67
2022/04/30 01:04:09;;;;;;;0.30;0.30;;;10.70;98.30;;;;;;5055714;28;20170;-66
2022/04/30 01:06:51;;;;;;;0.60;0.60;;;10.60;97.80;;;;;;5055838;28;20304;-66
2022/04/30 01:09:20;;;;;;;0.30;0.30;;;10.60;97.80;;;;;;5055809;28;20503;-67
2022/04/30 01:11:48;;;;;;;0.30;0.30;;;10.50;97.80;;;;;;5055217;28;20263;-67
2022/04/30 01:14:15;;;;;;;0.30;0.30;;;10.70;97.80;;;;;;5055576;28;20177;-66
2022/04/30 01:16:43;;;;;;;0.40;0.40;;;10.60;98.00;;;;;;5055500;28;20204;-66
2022/04/30 01:19:12;;;;;;;0.30;0.30;;;10.70;97.80;;;;;;5055485;28;20299;-66
2022/04/30 01:21:42;;;;;;;0.30;0.30;;;10.70;98.10;;;;;;5054935;28;20209;-67
2022/04/30 01:24:08;;;;;;;0.30;0.30;;;10.60;98.40;;;;;;5055199;28;20167;-67
2022/04/30 01:26:35;;;;;;;0.60;0.60;;;10.50;98.70;;;;;;5055215;28;20177;-67
2022/04/30 01:29:01;;;;;;;0.68;0.68;;;10.40;98.50;;;;;;5055394;28;20216;-66
2022/04/30 01:39:38;;;;;;;0.30;0.30;;;10.70;98.20;;;;;;5055007;28;20188;-67
2022/04/30 01:42:13;;;;;;;0.30;0.30;;;10.70;98.00;;;;;;5055186;28;20549;-66
2022/04/30 01:44:41;;;;;;;0.30;0.30;;;10.70;98.10;;;;;;5055138;28;20181;-67
2022/04/30 01:47:07;;;;;;;0.30;0.30;;;10.70;98.10;;;;;;5054872;28;20662;-66
2022/04/30 01:49:33;;;;;;;0.30;0.30;;;10.60;98.40;;;;;;5054779;28;20257;-66
2022/04/30 01:52:06;;;;;;;0.30;0.30;;;10.60;98.40;;;;;;5054670;28;20209;-67
2022/04/30 01:54:32;;;;;;;0.68;0.55;;;10.60;98.30;;;;;;5054974;28;20197;-66
2022/04/30 01:56:57;;;;;;;0.40;0.40;;;10.60;98.50;;;;;;5054890;28;20209;-66
2022/04/30 01:59:23;;;;;;;0.30;0.30;;;10.70;98.80;;;;;;5054728;28;20706;-67
2022/04/30 02:01:49;;;;;;;0.30;0.30;;;10.60;99.10;;;;;;5054415;28;20198;-66
2022/04/30 02:04:15;;;;;;;0.30;0.30;;;10.60;99.20;;;;;;5055141;28;20765;-66
2022/04/30 02:06:41;;;;;;;0.30;0.30;;;10.50;99.20;;;;;;5054700;28;20196;-66
2022/04/30 02:09:06;;;;;;;0.30;0.30;;;10.60;99.30;;;;;;5054671;28;20534;-67
2022/04/30 02:11:32;;;;;;;0.30;0.30;;;10.40;99.40;;;;;;5054321;28;20189;-67
2022/04/30 02:14:02;;;;;;;0.30;0.30;;;10.50;99.70;;;;;;5054488;28;20182;-66
2022/04/30 02:16:30;;;;;;;0.30;0.30;;;10.50;99.90;;;;;;5054444;28;20417;-66
2022/04/30 02:18:58;;;;;;;0.70;0.70;;;10.40;99.90;;;;;;5054422;28;20170;-67
2022/04/30 02:21:25;;;;;;;0.40;0.40;;;10.50;99.90;;;;;;5053725;28;20212;-67
2022/04/30 02:23:56;;;;;;;0.30;0.30;;;10.40;99.90;;;;;;5054280;28;20256;-67
2022/04/30 02:26:25;;;;;;;0.30;0.30;;;10.40;99.80;;;;;;5054307;28;20163;-67
2022/04/30 02:28:51;;;;;;;0.55;0.55;;;10.50;99.90;;;;;;5054202;28;20181;-66
2022/04/30 02:31:22;;;;;;;0.30;0.30;;;10.30;99.80;;;;;;5053823;28;20186;-67
2022/04/30 02:33:48;;;;;;;0.30;0.30;;;10.40;99.80;;;;;;5052706;28;20647;-66
2022/04/30 02:36:14;;;;;;;0.30;0.30;;;10.40;99.50;;;;;;5053451;28;20185;-67
2022/04/30 02:38:41;;;;;;;0.30;0.30;;;10.30;99.80;;;;;;5054009;28;20484;-67
2022/04/30 02:41:07;;;;;;;0.38;0.38;;;10.20;99.80;;;;;;5053551;28;20193;-67
2022/04/30 02:43:32;;;;;;;0.30;0.30;;;10.30;99.90;;;;;;5053771;28;20289;-67
2022/04/30 02:45:58;;;;;;;0.30;0.30;;;10.30;99.90;;;;;;5053953;28;20216;-67
2022/04/30 02:48:24;;;;;;;0.30;0.30;;;10.30;99.90;;;;;;5053821;28;20199;-67
2022/04/30 02:50:51;;;;;;;0.40;0.40;;;10.30;99.90;;;;;;5053504;28;20189;-66
2022/04/30 02:53:18;;;;;;;0.30;0.30;;;10.40;99.90;;;;;;5053860;28;20184;-67
2022/04/30 02:55:44;;;;;;;0.47;0.47;;;10.40;99.90;;;;;;5053760;28;20520;-66
2022/04/30 03:00:54;;;;;;;0.30;0.30;;;10.30;99.90;;;;;;5053385;28;20244;-66
2022/04/30 03:03:21;;;;;;;0.40;0.40;;;10.30;99.90;;;;;;5053580;28;20197;-66
2022/04/30 03:05:53;;;;;;;2.25;0.93;;;10.40;99.90;;;;;;5053494;28;20412;-67
2022/04/30 03:08:21;;;;;;;0.30;0.30;;;10.40;99.90;;;;;;5053615;28;20166;-67
2022/04/30 03:10:49;;;;;;;0.30;0.30;;;10.40;99.90;;;;;;5053165;28;20186;-66
2022/04/30 03:13:17;;;;;;;0.30;0.30;;;10.40;99.90;;;;;;5053640;28;20166;-66
2022/04/30 03:15:44;;;;;;;0.40;0.40;;;10.40;99.90;;;;;;5053433;28;20174;-66
2022/04/30 03:23:31;;;;;;;0.30;0.30;;;10.50;99.90;;;;;;5053642;28;20216;-67
2022/04/30 03:25:57;;;;;;;0.55;0.55;;;10.50;99.90;;;;;;5053312;28;20174;-67
2022/04/30 03:28:23;;;;;;;0.50;0.50;;;10.40;99.90;;;;;;5052113;28;20661;-67
2022/04/30 03:30:49;;;;;;;0.30;0.30;;;10.40;99.90;;;;;;5052992;28;20595;-68
2022/04/30 03:33:15;;;;;;;0.30;0.30;;;10.40;99.90;;;;;;5053388;28;20201;-66
2022/04/30 03:35:41;;;;;;;0.37;0.37;;;10.40;99.90;;;;;;5053171;28;20630;-67
2022/04/30 03:38:08;;;;;;;0.30;0.30;;;10.40;99.90;;;;;;5053348;28;20409;-67
2022/04/30 03:40:34;;;;;;;0.30;0.30;;;10.40;99.90;;;;;;5053064;28;20674;-66
2022/04/30 03:43:01;;;;;;;0.40;0.40;;;10.40;99.90;;;;;;5053182;28;20256;-66
2022/04/30 03:45:28;;;;;;;0.30;0.30;;;10.40;99.90;;;;;;5053251;28;20170;-66
2022/04/30 03:47:53;;;;;;;2.67;2.58;;;10.40;99.90;;;;;;5052969;28;20167;-66
2022/04/30 03:50:19;;;;;;;0.30;0.30;;;10.40;99.90;;;;;;5056801;28;20651;-66
2022/04/30 03:52:45;;;;;;;0.30;0.30;;;10.40;99.90;;;;;;5057085;28;20170;-66
2022/04/30 03:55:10;;;;;;;0.30;0.30;;;10.40;99.90;;;;;;5057040;28;20702;-66
2022/04/30 03:57:36;;;;;;;0.30;0.30;;;10.40;99.90;;;;;;5056926;28;20178;-67
2022/04/30 04:00:04;;;;;;;0.30;0.30;;;10.40;99.90;;;;;;5056808;28;20198;-67
2022/04/30 04:02:31;;;;;;;0.30;0.30;;;10.30;99.90;;;;;;5056889;28;20447;-67
2022/04/30 04:04:56;;;;;;;0.30;0.30;;;10.30;99.90;;;;;;5057034;28;20548;-67
2022/04/30 04:07:22;;;;;;;0.30;0.30;;;10.40;99.90;;;;;;5056794;28;20177;-67
2022/04/30 04:09:48;;;;;;;0.30;0.30;;;10.50;99.90;;;;;;5056767;28;20197;-67
2022/04/30 04:12:13;;;;;;;0.30;0.30;;;10.50;99.60;;;;;;5056881;28;20669;-66
2022/04/30 04:17:38;;;;;;;0.30;0.30;;;10.40;99.10;;;;;;5056846;28;20186;-66
2022/04/30 04:20:09;;;;;;;0.30;0.30;;;10.40;98.80;;;;;;5056489;28;20190;-66
2022/04/30 04:22:36;;;;;;;0.30;0.30;;;10.50;98.80;;;;;;5056462;28;20202;-67
2022/04/30 04:27:47;;;;;;;0.30;0.30;;;10.60;98.60;;;;;;5056887;28;20192;-67
2022/04/30 04:30:13;;;;;;;0.30;0.30;;;10.60;98.70;;;;;;5056435;28;20190;-66
2022/04/30 04:32:38;;;;;;;0.40;0.40;;;10.60;98.70;;;;;;5056388;28;20166;-66
2022/04/30 04:35:04;;;;;;;0.30;0.30;;;10.60;99.10;;;;;;5056378;28;20202;-67
2022/04/30 04:37:31;;;;;;;0.30;0.30;;;10.60;99.20;;;;;;5056425;28;20177;-67
2022/04/30 04:39:57;;;;;;;0.30;0.30;;;10.50;99.30;;;;;;5054622;28;20202;-67
2022/04/30 04:42:23;;;;;;;0.30;0.30;;;10.60;99.50;;;;;;5056198;28;20704;-66
2022/04/30 04:44:49;;;;;;;0.30;0.30;;;10.50;99.40;;;;;;5056252;28;20212;-67
2022/04/30 04:47:15;;;;;;;0.30;0.30;;;10.50;99.40;;;;;;5056098;28;20174;-67
2022/04/30 04:49:44;;;;;;;0.63;0.63;;;10.50;99.20;;;;;;5056102;28;20180;-66
2022/04/30 04:52:10;;;;;;;0.30;0.30;;;10.40;99.00;;;;;;5056053;28;20166;-66
2022/04/30 04:54:36;;;;;;;0.30;0.30;;;10.50;99.00;;;;;;5055930;28;20522;-67
2022/04/30 04:57:02;;;;;;;0.30;0.30;;;10.60;99.20;;;;;;5055778;28;20181;-67
2022/04/30 04:59:27;;;;;;;0.30;0.30;;;10.60;99.40;;;;;;5055532;28;20174;-66
2022/04/30 05:01:53;;;;;;;0.30;0.30;;;10.60;99.70;;;;;;5055682;28;20220;-69
2022/04/30 05:04:19;;;;;;;0.30;0.30;;;10.70;99.80;;;;;;5055851;28;20182;-66
2022/04/30 05:06:45;;;;;;;0.40;0.40;;;10.70;99.80;;;;;;5055801;28;20167;-67
2022/04/30 05:09:10;;;;;;;0.30;0.30;;;10.70;99.70;;;;;;5055701;28;20300;-66
2022/04/30 05:11:36;;;;;;;0.40;0.40;;;10.60;99.90;;;;;;5055244;28;20198;-67
2022/04/30 05:14:02;;;;;;;0.40;0.40;;;10.70;99.90;;;;;;5055864;28;20178;-67
2022/04/30 05:16:27;;;;;;;0.40;0.40;;;10.80;99.90;;;;;;5055556;28;20189;-66
2022/04/30 05:18:53;;;;;;;0.30;0.30;;;10.80;99.80;;;;;;5055549;28;20197;-66
2022/04/30 05:21:18;;;;;;;0.30;0.30;;;10.90;99.80;;;;;;5054934;28;20614;-67
2022/04/30 05:23:44;;;;;;;0.30;0.30;;;10.90;99.50;;;;;;5055469;28;20236;-66
2022/04/30 05:26:10;;;;;;;0.40;0.40;;;11.00;99.20;;;;;;5055762;28;20166;-66
2022/04/30 05:28:35;;;;;;;0.30;0.30;;;11.00;99.20;;;;;;5055324;28;20174;-67
2022/04/30 05:31:01;;;;;;;0.30;0.30;;;11.10;99.30;;;;;;5054881;28;20198;-67
2022/04/30 05:33:26;;;;;;;0.30;0.30;;;11.20;99.30;;;;;;5055404;28;20673;-67
2022/04/30 05:35:53;;;;;;;0.30;0.30;;;11.30;98.90;;;;;;5055271;28;20181;-67
2022/04/30 05:38:20;;;;;;;0.30;0.30;;;11.30;98.60;;;;;;5055226;28;20170;-67
2022/04/30 05:40:46;;;;;;;0.30;0.30;;;11.40;98.50;;;;;;5054816;28;20511;-66
2022/04/30 05:43:11;;;;;;;0.73;0.73;;;11.50;98.40;;;;;;5055120;28;20536;-67
2022/04/30 05:45:37;;;;;;;0.30;0.30;;;11.60;98.30;;;;;;5055286;28;20633;-67
2022/04/30 05:48:03;;;;;;;0.30;0.30;;;11.70;98.10;;;;;;5055117;28;20170;-67
2022/04/30 05:50:28;;;;;;;0.40;0.40;;;11.90;97.70;;;;;;5054756;28;20249;-67
2022/04/30 05:52:54;;;;;;;0.30;0.30;;;12.00;97.50;;;;;;5054857;28;20901;-67
2022/04/30 05:55:20;;;;;;;0.30;0.30;;;12.20;97.20;;;;;;5054933;28;20186;-66
2022/04/30 05:57:45;;;;;;;0.67;0.67;;;12.40;96.70;;;;;;5054694;28;20178;-67
2022/04/30 06:00:12;;;;;;;0.30;0.30;;;12.50;95.80;;;;;;5054433;28;20196;-67
2022/04/30 06:02:37;;;;;;;0.30;0.30;;;12.60;95.60;;;;;;5054607;28;20198;-67
2022/04/30 06:05:03;;;;;;;0.30;0.30;;;12.80;95.70;;;;;;5054637;28;20960;-67
2022/04/30 06:07:30;;;;;;;0.30;0.30;;;13.10;95.60;;;;;;5053364;28;20576;-67
2022/04/30 06:09:55;;;;;;;0.30;0.30;;;13.20;94.70;;;;;;5054086;28;20423;-67
2022/04/30 06:12:21;;;;;;;0.40;0.40;;;13.30;93.90;;;;;;5053563;28;20518;-67
2022/04/30 06:14:47;;;;;;;0.30;0.30;;;13.40;92.80;;;;;;5054432;28;20174;-67
2022/04/30 06:17:13;;;;;;;0.40;0.40;;;13.40;92.20;;;;;;5054380;28;20996;-67
2022/04/30 06:19:38;;;;;;;0.30;0.30;;;13.20;93.10;;;;;;5054322;28;20231;-67
2022/04/30 06:22:04;;;;;;;0.30;0.30;;;13.30;91.80;;;;;;5053746;28;20206;-66
2022/04/30 06:24:29;;;;;;;0.57;0.57;;;13.40;91.80;;;;;;5052928;28;20265;-67
2022/04/30 06:26:55;;;;;;;0.40;0.40;;;13.50;91.70;;;;;;5054064;28;20166;-67
2022/04/30 06:29:22;;;;;;;0.40;0.40;;;13.70;92.00;;;;;;5054291;28;20297;-67
2022/04/30 06:31:50;;;;;;;0.30;0.30;;;14.00;92.00;;;;;;5054012;28;20198;-67
2022/04/30 06:34:16;;;;;;;0.40;0.40;;;14.10;91.10;;;;;;5053922;28;20925;-66
2022/04/30 06:36:41;;;;;;;0.30;0.30;;;14.20;90.90;;;;;;5053898;28;20409;-66
2022/04/30 06:39:07;;;;;;;0.30;0.30;;;14.20;90.60;;;;;;5053974;28;20404;-67
2022/04/30 06:41:33;;;;;;;0.30;0.30;;;14.30;90.50;;;;;;5053581;28;20202;-67
2022/04/30 06:43:59;;;;;;;1.90;0.90;;;14.80;90.10;;;;;;5053906;28;20781;-67
2022/04/30 06:46:24;;;;;;;0.40;0.40;;;15.30;88.00;;;;;;5053836;28;20177;-66
2022/04/30 06:48:50;;;;;;;0.70;0.70;;;15.40;86.60;;;;;;5053851;28;20557;-67
2022/04/30 06:51:16;;;;;;;0.30;0.30;;;15.40;85.50;;;;;;5053444;28;20189;-67
2022/04/30 06:59:11;;;;;;;0.40;0.40;;;15.60;84.40;;;;;;5053806;28;20931;-68
2022/04/30 07:01:43;;;;;;;0.40;0.40;;;15.90;83.70;;;;;;5053171;28;20977;-67
2022/04/30 07:04:10;;;;;;;0.40;0.40;;;15.90;82.30;;;;;;5053531;28;20852;-67
2022/04/30 07:06:37;;;;;;;0.60;0.60;;;15.90;82.50;;;;;;5053455;28;20428;-66
2022/04/30 07:09:05;;;;;;;0.30;0.30;;;16.00;82.30;;;;;;5053570;28;20404;-67
2022/04/30 07:11:31;;;;;;;0.30;0.30;;;16.30;81.40;;;;;;5053242;28;20433;-66
2022/04/30 07:13:56;;;;;;;0.30;0.30;;;16.40;79.60;;;;;;5053450;28;20406;-66
2022/04/30 07:16:22;;;;;;;0.40;0.40;;;16.70;80.00;;;;;;5053651;28;20207;-67
2022/04/30 07:18:48;;;;;;;0.30;0.30;;;17.30;76.60;;;;;;5053440;28;20915;-67
2022/04/30 07:21:14;;;;;;;0.60;0.60;;;18.10;74.70;;;;;;5052864;28;20202;-67
2022/04/30 07:23:40;;;;;;;0.40;0.40;;;19.50;68.10;;;;;;5053015;28;20197;-67
2022/04/30 07:26:06;;;;;;;0.40;0.40;;;20.90;62.70;;;;;;5053348;28;20427;-67
2022/04/30 07:28:35;;;;;;;1.60;1.33;;;22.40;57.00;;;;;;5053400;28;20211;-67
2022/04/30 07:31:04;;;;;;;0.40;0.40;;;23.40;52.90;;;;;;5053224;28;20194;-67
2022/04/30 07:33:30;;;;;;;0.30;0.30;;;24.40;50.80;;;;;;5053314;28;20899;-68
2022/04/30 07:35:57;;;;;;;1.07;0.97;;;25.50;47.20;;;;;;5053304;28;20423;-68
2022/04/30 07:38:23;;;;;;;0.60;0.47;;;26.20;45.40;;;;;;5053288;28;20412;-68
2022/04/30 07:40:49;;;;;;;1.60;1.00;;;27.30;43.10;;;;;;5053027;28;20432;-68
2022/04/30 07:43:14;;;;;;;0.63;0.63;;;27.80;40.60;;;;;;5053280;28;20280;-68
2022/04/30 07:45:40;;;;;;;0.30;0.30;;;28.50;38.60;;;;;;5053203;28;20627;-68
2022/04/30 07:48:06;;;;;;;1.17;1.17;;;29.00;38.40;;;;;;5053163;28;20170;-68
2022/04/30 07:50:35;;;;;;;0.90;0.90;;;29.90;36.80;;;;;;5052639;28;20619;-68
2022/04/30 07:53:15;;;;;;;0.30;0.30;;;29.80;35.50;;;;;;5051918;28;20783;-68
2022/04/30 07:55:41;;;;;;;0.40;0.40;;;29.90;36.80;;;;;;5053202;28;20448;-68
2022/04/30 07:58:07;;;;;;;0.40;0.40;;;29.30;35.70;;;;;;5052926;28;20421;-67
2022/04/30 08:00:33;;;;;;;2.10;1.90;;;28.20;36.60;;;;;;5052802;28;20421;-68
2022/04/30 08:02:59;;;;;;;0.43;0.43;;;28.00;37.90;;;;;;5052918;28;20605;-68
2022/04/30 08:05:26;;;;;;;0.37;0.37;;;28.10;37.20;;;;;;5053158;28;20225;-68
2022/04/30 08:07:54;;;;;;;0.40;0.40;;;27.30;38.30;;;;;;5053165;28;20412;-68
2022/04/30 08:10:20;;;;;;;0.40;0.40;;;26.90;38.10;;;;;;5052680;28;20428;-68
2022/04/30 08:12:46;;;;;;;0.30;0.30;;;25.10;40.20;;;;;;5053138;28;20412;-67
2022/04/30 08:15:11;;;;;;;0.83;0.83;;;23.80;42.10;;;;;;5052793;28;20379;-68
2022/04/30 08:17:38;;;;;;;0.30;0.30;;;24.10;42.00;;;;;;5052927;28;20178;-68
2022/04/30 08:20:06;;;;;;;0.37;0.37;;;24.90;41.70;;;;;;5052760;28;20201;-68
2022/04/30 08:22:31;;;;;;;0.30;0.30;;;24.90;39.60;;;;;;5052754;28;20504;-67
2022/04/30 08:24:59;;;;;;;0.30;0.30;;;24.80;40.40;;;;;;5052941;28;20463;-67
2022/04/30 08:27:25;;;;;;;0.30;0.30;;;25.90;40.60;;;;;;5052750;28;20532;-68
2022/04/30 08:29:50;;;;;;;0.50;0.40;;;26.70;39.00;;;;;;5052434;28;20428;-68
2022/04/30 08:32:16;;;;;;;0.30;0.30;;;27.00;37.70;;;;;;5052754;28;20178;-68
2022/04/30 08:34:42;;;;;;;0.70;0.63;;;26.30;37.50;;;;;;5053710;28;20174;-67
2022/04/30 08:37:08;;;;;;;1.30;1.30;;;25.40;37.50;;;;;;5056490;28;20174;-67
2022/04/30 08:39:33;;;;;;;0.30;0.30;;;24.00;38.80;;;;;;5056074;28;20424;-68
2022/04/30 08:41:59;;;;;;;0.30;0.30;;;22.70;40.50;;;;;;5055860;28;20437;-67
2022/04/30 08:44:25;;;;;;;0.30;0.30;;;21.70;42.30;;;;;;5056498;28;20257;-67
2022/04/30 08:46:51;;;;;;;0.30;0.30;;;21.60;43.70;;;;;;5056116;28;20175;-67
2022/04/30 08:49:17;;;;;;;0.30;0.30;;;22.30;42.70;;;;;;5056220;28;20690;-67
2022/04/30 08:51:42;;;;;;;0.30;0.30;;;22.40;43.20;;;;;;5055950;28;20507;-67
2022/04/30 08:54:08;;;;;;;0.40;0.40;;;21.50;43.30;;;;;;5056009;28;20185;-67
2022/04/30 08:56:35;;;;;;;0.30;0.30;;;20.80;44.90;;;;;;5055869;28;20194;-67
2022/04/30 08:59:04;;;;;;;0.83;0.50;;;20.60;45.00;;;;;;5056247;28;20220;-67
2022/04/30 09:01:31;;;;;;;0.60;0.60;;;22.00;45.60;;;;;;5055596;28;20433;-67
2022/04/30 09:03:57;;;;;;;0.30;0.30;;;23.70;43.90;;;;;;5055870;28;20964;-67
2022/04/30 09:06:25;;;;;;;0.50;0.50;;;24.00;41.20;;;;;;5055917;28;20491;-68
2022/04/30 09:08:52;;;;;;;0.40;0.40;;;23.90;42.10;;;;;;5055758;28;20177;-67
2022/04/30 09:11:27;;;;;;;0.30;0.30;;;23.50;41.40;;;;;;5055350;28;20428;-67
2022/04/30 09:13:53;;;;;;;0.73;0.73;;;23.00;41.20;;;;;;5055698;28;20986;-67
2022/04/30 09:16:20;;;;;;;0.40;0.40;;;22.20;42.20;;;;;;5055690;28;20885;-67
2022/04/30 09:18:48;;;;;;;0.57;0.57;;;21.40;43.30;;;;;;5055649;28;20939;-67
2022/04/30 09:21:15;;;;;;;0.47;0.47;;;21.00;45.10;;;;;;5055039;28;20453;-67
2022/04/30 09:23:42;;;;;;;0.30;0.30;;;20.10;46.70;;;;;;5055510;28;20451;-67
2022/04/30 09:26:07;;;;;;;0.40;0.40;;;19.40;49.10;;;;;;5055303;28;20411;-67
2022/04/30 09:28:37;;;;;;;0.30;0.30;;;18.50;51.40;;;;;;5055343;28;20456;-68
2022/04/30 09:31:21;;;;;;;0.40;0.40;;;17.50;55.20;;;;;;5055283;28;20194;-66
2022/04/30 09:33:56;;;;;;;1.23;1.07;;;16.50;59.40;;;;;;5055453;28;20447;-67
2022/04/30 09:39:13;;;;;;;0.30;0.30;;;15.50;69.70;;;;;;5055646;28;20427;-66
2022/04/30 09:41:38;;;;;;;0.30;0.30;;;15.20;79.80;;;;;;5054901;28;20423;-66
2022/04/30 09:44:06;;;;;;;0.30;0.30;;;14.90;93.40;;;;;;5055005;28;20739;-66
2022/04/30 09:46:37;;;;;;;0.40;0.40;;;14.80;95.90;;;;;;5054780;28;20250;-67
2022/04/30 09:54:36;;;;;;;0.40;0.40;;;15.10;96.40;;;;;;5055116;28;20766;-66
2022/04/30 09:57:04;;;;;;;0.47;0.47;;;15.40;96.80;;;;;;5054750;28;20757;-66
2022/04/30 09:59:30;;;;;;;0.30;0.30;;;15.50;96.00;;;;;;5054714;28;20832;-68
2022/04/30 10:01:56;;;;;;;0.30;0.30;;;15.60;94.50;;;;;;5054566;28;20542;-68
2022/04/30 10:04:23;;;;;;;0.30;0.30;;;15.80;94.90;;;;;;5054792;28;20446;-67
2022/04/30 10:06:53;;;;;;;0.57;0.57;;;16.10;92.70;;;;;;5054714;28;20415;-67
2022/04/30 10:09:26;;;;;;;1.40;1.40;;;16.50;92.00;;;;;;5054578;28;20397;-67
2022/04/30 10:12:19;;;;;;;0.30;0.30;;;17.50;90.60;;;;;;5054277;28;20449;-66
2022/04/30 10:14:51;;;;;;;0.30;0.30;;;18.70;82.30;;;;;;5054550;28;20403;-68
2022/04/30 10:17:20;;;;;;;0.30;0.30;;;18.90;74.90;;;;;;5054455;28;20404;-67
2022/04/30 10:20:15;;;;;;;1.53;0.93;;;18.70;78.60;;;;;;5054283;28;20429;-67
2022/04/30 10:22:58;;;;;;;0.30;0.30;;;18.20;83.40;;;;;;5054192;28;20463;-67
2022/04/30 10:25:36;;;;;;;0.30;0.30;;;17.60;77.40;;;;;;5054323;28;20428;-68
2022/04/30 10:28:14;;;;;;;0.60;0.60;;;17.50;81.30;;;;;;5054299;28;20779;-67
2022/04/30 10:30:41;;;;;;;0.83;0.83;;;17.30;84.30;;;;;;5053884;28;20421;-66
2022/04/30 10:33:10;;;;;;;0.30;0.30;;;17.00;88.70;;;;;;5054147;28;20405;-67
2022/04/30 10:35:41;;;;;;;0.30;0.30;;;16.80;80.70;;;;;;5054248;28;20484;-67
2022/04/30 10:38:20;;;;;;;2.30;0.77;;;16.80;85.00;;;;;;5054138;28;20401;-66
2022/04/30 10:40:50;;;;;;;2.73;1.33;;;17.20;84.40;;;;;;5053763;28;20812;-67
2022/04/30 10:43:34;;;;;;;0.30;0.30;;;17.10;76.90;;;;;;5053864;28;20953;-67
2022/04/30 10:46:00;;;;;;;0.30;0.30;;;17.10;77.70;;;;;;5054122;28;20729;-67
2022/04/30 10:48:26;;;;;;;0.30;0.30;;;17.30;79.40;;;;;;5054053;28;20775;-67
2022/04/30 10:51:04;;;;;;;0.40;0.40;;;17.40;72.60;;;;;;5053616;28;20425;-67
2022/04/30 10:53:30;;;;;;;0.30;0.30;;;17.50;75.80;;;;;;5053798;28;20172;-67
2022/04/30 10:55:56;;;;;;;0.50;0.50;;;17.80;77.90;;;;;;5053797;28;20760;-67
2022/04/30 10:58:26;;;;;;;0.40;0.40;;;17.90;67.70;;;;;;5053105;28;20502;-67
2022/04/30 11:00:52;;;;;;;0.30;0.30;;;18.10;71.30;;;;;;5053437;28;20195;-67
2022/04/30 11:03:24;;;;;;;0.87;0.87;;;18.30;68.10;;;;;;5053715;28;20447;-67
2022/04/30 11:05:50;;;;;;;0.30;0.30;;;18.40;64.60;;;;;;5053887;28;20285;-67
2022/04/30 11:08:15;;;;;;;0.80;0.80;;;18.50;69.80;;;;;;5053606;28;20878;-67
2022/04/30 11:10:54;;;;;;;0.30;0.30;;;18.50;58.50;;;;;;5053307;28;20232;-68
2022/04/30 11:13:20;;;;;;;1.50;1.40;;;18.30;57.80;;;;;;5053310;28;20224;-66
2022/04/30 11:15:47;;;;;;;0.90;0.90;;;18.00;60.90;;;;;;5053577;28;20808;-67
2022/04/30 11:18:16;;;;;;;0.30;0.30;;;17.60;60.00;;;;;;5053383;28;20409;-67
2022/04/30 11:20:41;;;;;;;0.30;0.30;;;17.30;59.80;;;;;;5053159;28;20478;-66
2022/04/30 11:23:07;;;;;;;0.30;0.30;;;17.00;66.70;;;;;;5053392;28;20535;-67
2022/04/30 11:25:40;;;;;;;0.30;0.30;;;16.40;72.30;;;;;;5053622;28;20544;-67
2022/04/30 11:28:09;;;;;;;0.30;0.30;;;16.20;74.30;;;;;;5053243;28;20166;-67
2022/04/30 11:30:39;;;;;;;0.67;0.67;;;16.20;73.50;;;;;;5053005;28;20421;-67
2022/04/30 11:33:06;;;;;;;0.50;0.50;;;16.50;73.50;;;;;;5053327;28;20397;-66
2022/04/30 11:35:32;;;;;;;0.30;0.30;;;16.90;73.30;;;;;;5053234;28;20489;-67
2022/04/30 11:37:57;;;;;;;0.73;0.73;;;17.10;72.00;;;;;;5053323;28;20435;-67
2022/04/30 11:40:25;;;;;;;0.50;0.50;;;17.40;65.50;;;;;;5053085;28;20428;-67
2022/04/30 11:43:04;;;;;;;0.80;0.80;;;17.80;65.60;;;;;;5053161;28;20201;-68
2022/04/30 11:45:31;;;;;;;0.60;0.60;;;18.00;60.90;;;;;;5053277;28;20458;-67
2022/04/30 11:47:57;;;;;;;0.30;0.30;;;17.90;60.50;;;;;;5053143;28;21032;-67
2022/04/30 11:50:24;;;;;;;0.40;0.40;;;18.10;61.60;;;;;;5052983;28;20511;-67
2022/04/30 11:52:50;;;;;;;0.40;0.40;;;18.10;63.20;;;;;;5051852;28;20750;-67
2022/04/30 11:55:16;;;;;;;0.40;0.40;;;18.10;64.50;;;;;;5052982;28;20396;-66
2022/04/30 11:57:43;;;;;;;0.50;0.50;;;17.90;65.60;;;;;;5052653;28;20410;-67
2022/04/30 12:00:11;;;;;;;1.53;1.43;;;18.30;64.20;;;;;;5052676;28;20430;-67
2022/04/30 12:02:39;;;;;;;0.40;0.40;;;19.10;60.10;;;;;;5052403;28;20599;-67
2022/04/30 12:05:06;;;;;;;0.30;0.30;;;19.20;59.90;;;;;;5052836;28;20512;-68
2022/04/30 12:07:40;;;;;;;3.63;0.70;;;19.00;59.70;;;;;;5052667;28;20437;-68
2022/04/30 12:10:26;;;;;;;0.30;0.30;;;18.70;57.30;;;;;;5054029;28;20429;-68
2022/04/30 12:12:53;;;;;;;0.30;0.30;;;18.30;56.80;;;;;;5056667;28;20495;-67
2022/04/30 12:15:26;;;;;;;0.43;0.43;;;17.90;56.90;;;;;;5056602;28;20428;-68
2022/04/30 12:26:51;;;;;;;0.30;0.30;;;18.40;56.30;;;;;;5056682;28;20903;-67
2022/04/30 12:29:21;;;;;;;0.70;0.70;;;18.40;55.80;;;;;;5056710;28;20487;-67
2022/04/30 12:31:53;;;;;;;0.70;0.70;;;17.80;55.10;;;;;;5055979;28;20470;-67
2022/04/30 12:34:33;;;;;;;0.60;0.60;;;17.60;56.10;;;;;;5054716;28;20906;-67
2022/04/30 12:37:00;;;;;;;0.30;0.30;;;17.30;55.70;;;;;;5056067;28;20477;-66
2022/04/30 12:39:27;;;;;;;0.30;0.30;;;17.20;58.20;;;;;;5056044;28;20428;-67
2022/04/30 12:41:54;;;;;;;0.50;0.50;;;17.20;57.30;;;;;;5055642;28;20436;-67
2022/04/30 12:44:24;;;;;;;0.87;0.87;;;16.80;57.50;;;;;;5056032;28;20403;-67
2022/04/30 12:46:49;;;;;;;1.37;1.27;;;16.60;58.20;;;;;;5056013;28;20401;-67
2022/04/30 12:49:17;;;;;;;0.30;0.30;;;16.50;60.40;;;;;;5055750;28;20825;-66
2022/04/30 12:51:44;;;;;;;0.30;0.30;;;16.30;60.90;;;;;;5055362;28;20520;-67
2022/04/30 12:54:12;;;;;;;0.30;0.30;;;16.30;61.60;;;;;;5055645;28;20397;-67
2022/04/30 12:56:39;;;;;;;0.87;0.73;;;16.40;61.50;;;;;;5055776;28;20421;-67
2022/04/30 12:59:05;;;;;;;0.40;0.40;;;16.50;62.80;;;;;;5055903;28;20951;-67
2022/04/30 13:01:33;;;;;;;0.30;0.30;;;16.50;64.00;;;;;;5055723;28;20470;-67
2022/04/30 13:03:58;;;;;;;0.50;0.50;;;16.40;65.80;;;;;;5055860;28;20749;-67
2022/04/30 13:06:24;;;;;;;0.77;0.67;;;16.30;69.20;;;;;;5055640;28;20416;-67
2022/04/30 13:14:19;;;;;;;0.40;0.40;;;15.00;76.90;;;;;;5055686;28;20950;-67
2022/04/30 13:16:45;;;;;;;0.30;0.30;;;15.10;78.70;;;;;;5055640;28;20415;-67
2022/04/30 13:19:10;;;;;;;0.47;0.47;;;14.90;79.70;;;;;;5055503;28;20170;-66
2022/04/30 13:21:37;;;;;;;0.60;0.60;;;14.60;79.30;;;;;;5054626;28;20276;-67
2022/04/30 13:24:03;;;;;;;0.40;0.40;;;14.60;79.70;;;;;;5055705;28;20166;-67
2022/04/30 13:26:29;;;;;;;0.30;0.30;;;14.50;78.10;;;;;;5055663;28;20731;-67
2022/04/30 13:28:55;;;;;;;0.30;0.30;;;14.60;75.90;;;;;;5055381;28;20404;-67
2022/04/30 13:31:22;;;;;;;2.60;1.90;;;14.60;74.10;;;;;;5054985;28;20226;-66
2022/04/30 13:33:48;;;;;;;0.30;0.30;;;14.60;72.70;;;;;;5055225;28;20216;-67
2022/04/30 13:36:13;;;;;;;0.40;0.40;;;14.50;74.40;;;;;;5055409;28;20404;-66
2022/04/30 13:38:40;;;;;;;0.53;0.53;;;14.30;77.60;;;;;;5055129;28;20252;-67